createdAt,value
2022-08-11T00:00:40.802Z,50.83
2022-08-11T00:03:48.915Z,50.74
2022-08-11T00:06:52.421Z,50.52
2022-08-11T00:09:55.143Z,51.04
2022-08-11T00:13:00.533Z,51.63
2022-08-11T00:16:04.307Z,51.29
2022-08-11T00:19:06.053Z,51.46
2022-08-11T00:22:09.208Z,51.27
2022-08-11T00:25:20.037Z,51.76
2022-08-11T00:28:30.868Z,52.05
2022-08-11T00:31:35.499Z,52.18
2022-08-11T00:34:38.757Z,52.07
2022-08-11T00:37:48.281Z,52.55
2022-08-11T00:41:27.831Z,53.00
2022-08-11T00:44:54.232Z,52.69
2022-08-11T00:48:28.442Z,52.56
2022-08-11T00:52:03.863Z,52.64
2022-08-11T00:55:36.397Z,52.72
2022-08-11T00:58:40.920Z,52.14
2022-08-11T01:01:58.974Z,52.67
2022-08-11T01:05:23.385Z,52.54
2022-08-11T01:08:59.297Z,52.86
2022-08-11T01:12:39.003Z,52.50
2022-08-11T01:16:06.400Z,52.66
2022-08-11T01:19:27.801Z,52.21
2022-08-11T01:23:07.350Z,52.17
2022-08-11T01:27:00.232Z,52.42
2022-08-11T01:30:33.953Z,52.40
2022-08-11T01:34:13.655Z,52.59
2022-08-11T01:37:44.732Z,52.35
2022-08-11T01:41:07.709Z,52.61
2022-08-11T01:44:46.994Z,52.92
2022-08-11T01:48:05.261Z,53.04
2022-08-11T01:51:30.313Z,53.00
2022-08-11T01:54:52.165Z,53.44
2022-08-11T01:58:13.480Z,53.43
2022-08-11T02:01:37.710Z,54.00
2022-08-11T02:05:23.316Z,53.93
2022-08-11T02:08:50.392Z,53.47
2022-08-11T02:12:01.694Z,53.57
2022-08-11T02:15:26.343Z,53.81
2022-08-11T02:18:52.943Z,54.14
2022-08-11T02:22:31.934Z,54.35
2022-08-11T02:25:56.746Z,54.41
2022-08-11T02:29:10.750Z,54.32
2022-08-11T02:32:46.593Z,54.91
2022-08-11T02:35:58.398Z,55.53
2022-08-11T02:39:11.501Z,55.91
2022-08-11T02:42:37.851Z,55.97
2022-08-11T02:45:46.257Z,55.80
2022-08-11T02:49:09.491Z,56.06
2022-08-11T02:52:19.650Z,56.31
2022-08-11T02:55:48.790Z,56.20
2022-08-11T02:59:12.386Z,56.36
2022-08-11T03:02:32.179Z,56.43
2022-08-11T03:05:55.809Z,56.34
2022-08-11T03:09:06.531Z,56.69
2022-08-11T03:12:43.801Z,57.33
2022-08-11T03:16:08.461Z,57.41
2022-08-11T03:19:31.701Z,57.63
2022-08-11T03:22:40.545Z,57.79
2022-08-11T03:26:05.606Z,58.09
2022-08-11T03:29:28.180Z,58.19
2022-08-11T03:32:38.021Z,57.83
2022-08-11T03:36:02.575Z,58.35
2022-08-11T03:39:04.229Z,58.25
2022-08-11T03:42:33.380Z,58.36
2022-08-11T03:46:08.884Z,58.38
2022-08-11T03:49:32.230Z,58.71
2022-08-11T03:53:09.335Z,58.00
2022-08-11T03:56:11.519Z,57.78
2022-08-11T03:59:28.841Z,57.89
2022-08-11T04:03:15.657Z,58.00
2022-08-11T04:06:26.442Z,58.37
2022-08-11T04:10:03.551Z,58.39
2022-08-11T04:13:35.596Z,58.56
2022-08-11T04:16:46.358Z,57.83
2022-08-11T04:20:13.157Z,58.25
2022-08-11T04:24:36.771Z,58.25
2022-08-11T04:27:07.475Z,58.48
2022-08-11T04:30:37.668Z,58.81
2022-08-11T04:34:33.030Z,59.17
2022-08-11T04:37:43.624Z,59.02
2022-08-11T04:41:15.189Z,59.01
2022-08-11T04:45:04.856Z,59.37
2022-08-11T04:48:34.183Z,59.43
2022-08-11T04:52:20.936Z,59.08
2022-08-11T04:55:59.478Z,59.12
2022-08-11T04:59:33.165Z,58.86
2022-08-11T05:03:06.450Z,59.49
2022-08-11T05:06:27.174Z,59.27
2022-08-11T05:09:44.672Z,59.40
2022-08-11T05:12:54.681Z,59.44
2022-08-11T05:16:18.500Z,59.23
2022-08-11T05:19:40.247Z,58.83
2022-08-11T05:23:08.702Z,58.92
2022-08-11T05:26:47.303Z,58.71
2022-08-11T05:30:18.406Z,59.14
2022-08-11T05:34:07.609Z,58.89
2022-08-11T05:37:27.665Z,58.75
2022-08-11T05:40:51.231Z,58.63
2022-08-11T05:44:20.125Z,58.70
2022-08-11T05:47:46.165Z,58.50
2022-08-11T05:51:16.815Z,58.37
2022-08-11T05:54:38.816Z,58.08
2022-08-11T05:57:50.791Z,57.92
2022-08-11T06:00:54.109Z,57.82
2022-08-11T06:04:16.269Z,57.71
2022-08-11T06:07:18.264Z,57.60
2022-08-11T06:10:38.146Z,57.66
2022-08-11T06:13:45.941Z,57.48
2022-08-11T06:16:49.938Z,57.20
2022-08-11T06:19:57.371Z,57.42
2022-08-11T06:23:10.063Z,56.99
2022-08-11T06:26:13.967Z,56.90
2022-08-11T06:29:18.569Z,56.43
2022-08-11T06:32:33.091Z,56.56
2022-08-11T06:36:10.503Z,56.39
2022-08-11T06:39:15.304Z,56.19
2022-08-11T06:42:34.637Z,55.88
2022-08-11T06:45:57.844Z,55.80
2022-08-11T06:49:03.881Z,55.51
2022-08-11T06:52:34.026Z,54.92
2022-08-11T06:55:55.866Z,54.67
2022-08-11T06:59:18.898Z,54.61
2022-08-11T07:02:35.458Z,54.65
2022-08-11T07:05:55.727Z,54.15
2022-08-11T07:09:38.236Z,53.25
2022-08-11T07:13:04.633Z,52.99
2022-08-11T07:16:12.526Z,52.21
2022-08-11T07:19:40.257Z,52.02
2022-08-11T07:23:13.548Z,51.73
2022-08-11T07:26:34.314Z,50.78
2022-08-11T07:29:39.092Z,50.70
2022-08-11T07:32:52.891Z,50.23
2022-08-11T07:36:00.143Z,49.47
2022-08-11T07:39:02.819Z,48.95
2022-08-11T07:42:10.598Z,49.15
2022-08-11T07:45:31.962Z,48.78
2022-08-11T07:48:53.331Z,48.20
2022-08-11T07:52:14.564Z,48.42
2022-08-11T07:55:19.935Z,47.91
2022-08-11T07:59:06.330Z,47.61
2022-08-11T08:02:31.298Z,47.60
2022-08-11T08:05:52.560Z,47.39
2022-08-11T08:09:13.926Z,47.13
2022-08-11T08:12:34.624Z,46.33
2022-08-11T08:15:55.614Z,46.02
2022-08-11T08:18:57.455Z,45.69
2022-08-11T08:22:06.113Z,45.69
2022-08-11T08:25:21.445Z,45.60
2022-08-11T08:28:23.630Z,45.64
2022-08-11T08:31:25.822Z,45.55
2022-08-11T08:34:27.657Z,45.81
2022-08-11T08:37:46.835Z,45.70
2022-08-11T08:40:55.952Z,45.29
2022-08-11T08:44:36.787Z,44.54
2022-08-11T08:47:41.488Z,44.07
2022-08-11T08:51:08.908Z,43.63
2022-08-11T08:54:28.932Z,43.72
2022-08-11T08:57:38.894Z,43.49
2022-08-11T09:00:45.797Z,42.63
2022-08-11T09:04:04.737Z,42.92
2022-08-11T09:07:14.421Z,42.00
2022-08-11T09:10:22.144Z,42.15
2022-08-11T09:13:23.918Z,41.77
2022-08-11T09:16:26.186Z,41.47
2022-08-11T09:19:27.968Z,41.22
2022-08-11T09:23:14.474Z,40.88
2022-08-11T09:26:33.777Z,40.66
2022-08-11T09:29:37.969Z,40.72
2022-08-11T09:32:41.978Z,40.32
2022-08-11T09:35:46.763Z,40.22
2022-08-11T09:39:07.497Z,40.08
2022-08-11T09:42:11.443Z,39.90
2022-08-11T09:45:19.270Z,40.13
2022-08-11T09:48:23.842Z,39.99
2022-08-11T09:51:29.994Z,40.10
2022-08-11T09:54:34.353Z,39.97
2022-08-11T09:57:57.184Z,40.35
2022-08-11T10:01:02.155Z,39.23
2022-08-11T10:04:11.701Z,38.28
2022-08-11T10:07:19.503Z,38.09
2022-08-11T10:10:22.899Z,38.65
2022-08-11T10:14:12.249Z,38.26
2022-08-11T10:16:57.345Z,38.23
2022-08-11T10:20:05.050Z,38.16
2022-08-11T10:23:29.226Z,38.23
2022-08-11T10:26:54.344Z,37.68
2022-08-11T10:30:15.312Z,38.03
2022-08-11T10:33:44.183Z,38.24
2022-08-11T10:37:03.179Z,38.18
2022-08-11T10:40:06.812Z,37.62
2022-08-11T10:43:59.344Z,37.69
2022-08-11T10:46:57.741Z,38.19
2022-08-11T10:50:18.984Z,38.11
2022-08-11T10:53:39.379Z,38.10
2022-08-11T10:57:00.416Z,37.77
2022-08-11T11:00:03.576Z,37.45
2022-08-11T11:03:23.216Z,37.47
2022-08-11T11:06:48.811Z,37.51
2022-08-11T11:09:58.537Z,37.26
2022-08-11T11:13:19.214Z,37.48
2022-08-11T11:16:45.361Z,37.05
2022-08-11T11:19:49.931Z,36.90
2022-08-11T11:22:55.315Z,36.30
2022-08-11T11:26:27.767Z,36.21
2022-08-11T11:29:54.589Z,36.68
2022-08-11T11:33:22.838Z,35.83
2022-08-11T11:36:37.378Z,35.64
2022-08-11T11:39:39.880Z,35.90
2022-08-11T11:42:44.678Z,36.37
2022-08-11T11:45:46.556Z,36.06
2022-08-11T11:48:48.863Z,35.57
2022-08-11T11:51:52.941Z,36.13
2022-08-11T11:54:56.925Z,35.29
2022-08-11T11:58:22.247Z,34.89
2022-08-11T12:01:25.491Z,34.95
2022-08-11T12:04:29.099Z,35.24
2022-08-11T12:08:04.994Z,35.17
2022-08-11T12:11:31.889Z,35.00
2022-08-11T12:14:33.705Z,35.29
2022-08-11T12:17:36.430Z,35.02
2022-08-11T12:20:38.958Z,34.79
2022-08-11T12:24:04.293Z,34.57
2022-08-11T12:27:24.023Z,34.79
2022-08-11T12:30:27.297Z,34.95
2022-08-11T12:33:29.060Z,34.48
2022-08-11T12:36:36.138Z,34.43
2022-08-11T12:40:16.286Z,34.28
2022-08-11T12:43:40.928Z,34.43
2022-08-11T12:46:45.085Z,34.82
2022-08-11T12:50:22.604Z,33.72
2022-08-11T12:53:29.825Z,33.67
2022-08-11T12:56:58.176Z,33.82
2022-08-11T13:00:19.839Z,34.04
2022-08-11T13:03:41.188Z,33.40
2022-08-11T13:06:43.101Z,33.45
2022-08-11T13:09:46.499Z,33.15
2022-08-11T13:12:48.366Z,33.02
2022-08-11T13:15:52.126Z,32.59
2022-08-11T13:18:54.384Z,32.42
2022-08-11T13:21:57.519Z,31.76
2022-08-11T13:24:59.825Z,31.58
2022-08-11T13:28:03.117Z,31.37
2022-08-11T13:31:11.943Z,30.89
2022-08-11T13:34:16.279Z,29.92
2022-08-11T13:37:21.108Z,29.93
2022-08-11T13:40:55.529Z,29.60
2022-08-11T13:43:58.298Z,29.45
2022-08-11T13:47:04.026Z,28.48
2022-08-11T13:50:07.689Z,28.63
2022-08-11T13:53:12.201Z,28.02
2022-08-11T13:56:14.448Z,27.14
2022-08-11T13:59:20.371Z,27.27
2022-08-11T14:02:31.771Z,26.96
2022-08-11T14:05:39.235Z,25.62
2022-08-11T14:08:47.417Z,26.58
2022-08-11T14:12:21.658Z,26.52
2022-08-11T14:15:31.848Z,24.83
2022-08-11T14:18:34.150Z,25.07
2022-08-11T14:21:57.139Z,24.84
2022-08-11T14:24:59.688Z,24.17
2022-08-11T14:28:32.640Z,24.42
2022-08-11T14:31:25.712Z,24.07
2022-08-11T14:34:34.355Z,23.61
2022-08-11T14:37:37.877Z,23.25
2022-08-11T14:40:58.141Z,23.27
2022-08-11T14:44:18.905Z,23.15
2022-08-11T14:47:24.697Z,23.41
2022-08-11T14:50:29.591Z,23.49
2022-08-11T14:53:32.532Z,23.32
2022-08-11T14:56:37.320Z,23.33
2022-08-11T14:59:39.800Z,23.32
2022-08-11T15:03:01.160Z,22.69
2022-08-11T15:06:05.136Z,22.84
2022-08-11T15:09:09.258Z,22.62
2022-08-11T15:12:31.187Z,22.49
2022-08-11T15:16:06.016Z,22.72
2022-08-11T15:19:07.840Z,21.92
2022-08-11T15:22:28.983Z,21.86
2022-08-11T15:25:31.157Z,21.47
2022-08-11T15:28:57.937Z,21.35
2022-08-11T15:32:21.757Z,21.20
2022-08-11T15:35:44.529Z,21.75
2022-08-11T15:39:02.113Z,21.07
2022-08-11T15:42:28.048Z,20.83
2022-08-11T15:45:50.253Z,21.25
2022-08-11T15:49:13.279Z,20.30
2022-08-11T15:52:30.581Z,20.75
2022-08-11T15:55:35.101Z,21.17
2022-08-11T15:59:41.016Z,20.67
2022-08-11T16:02:45.140Z,20.97
2022-08-11T16:05:53.255Z,20.78
2022-08-11T16:08:59.484Z,20.84
2022-08-11T16:12:04.927Z,21.37
2022-08-11T16:15:27.835Z,21.08
2022-08-11T16:18:40.821Z,21.50
2022-08-11T16:21:44.698Z,21.31
2022-08-11T16:27:01.999Z,21.67
2022-08-11T16:28:15.664Z,22.06
2022-08-11T16:31:19.606Z,21.93
2022-08-11T16:34:39.833Z,22.57
2022-08-11T16:38:15.770Z,22.89
2022-08-11T16:41:42.203Z,22.92
2022-08-11T16:45:02.685Z,23.27
2022-08-11T16:48:33.413Z,23.87
2022-08-11T16:51:28.196Z,24.22
2022-08-11T16:54:32.614Z,24.27
2022-08-11T16:57:54.342Z,24.50
2022-08-11T17:00:58.880Z,24.28
2022-08-11T17:04:36.782Z,24.70
2022-08-11T17:08:01.326Z,25.16
2022-08-11T17:11:27.006Z,25.73
2022-08-11T17:14:45.853Z,26.40
2022-08-11T17:17:47.799Z,26.34
2022-08-11T17:20:49.788Z,25.85
2022-08-11T17:24:01.056Z,26.78
2022-08-11T17:27:08.171Z,26.90
2022-08-11T17:30:11.322Z,26.49
2022-08-11T17:33:33.133Z,27.42
2022-08-11T17:36:41.586Z,26.85
2022-08-11T17:39:47.673Z,26.74
2022-08-11T17:43:09.588Z,27.90
2022-08-11T17:46:29.980Z,28.05
2022-08-11T17:49:37.440Z,29.17
2022-08-11T17:53:00.859Z,28.33
2022-08-11T17:56:23.101Z,28.98
2022-08-11T17:59:43.799Z,28.61
2022-08-11T18:03:11.578Z,28.88
2022-08-11T18:06:14.259Z,30.41
2022-08-11T18:09:37.939Z,29.32
2022-08-11T18:12:58.646Z,30.05
2022-08-11T18:16:19.600Z,30.90
2022-08-11T18:19:40.049Z,31.07
2022-08-11T18:23:03.722Z,31.23
2022-08-11T18:26:25.677Z,31.05
2022-08-11T18:29:48.564Z,31.25
2022-08-11T18:36:59.809Z,32.80
2022-08-11T18:40:28.522Z,33.36
2022-08-11T18:43:55.840Z,33.37
2022-08-11T18:47:17.700Z,34.48
2022-08-11T18:50:39.926Z,34.06
2022-08-11T18:54:02.715Z,34.14
2022-08-11T18:57:26.556Z,34.49
2022-08-11T19:00:49.143Z,34.45
2022-08-11T19:04:17.463Z,34.75
2022-08-11T19:07:40.410Z,35.06
2022-08-11T19:11:03.412Z,35.58
2022-08-11T19:14:24.780Z,35.83
2022-08-11T19:17:46.500Z,36.62
2022-08-11T19:21:07.742Z,36.75
2022-08-11T19:24:32.502Z,37.08
2022-08-11T19:27:53.288Z,37.09
2022-08-11T19:31:15.087Z,37.44
2022-08-11T19:34:39.036Z,37.60
2022-08-11T19:38:00.532Z,38.25
2022-08-11T19:41:57.287Z,38.50
2022-08-11T19:45:06.047Z,38.53
2022-08-11T19:48:32.263Z,38.71
2022-08-11T19:51:54.729Z,39.09
2022-08-11T19:55:15.957Z,39.15
2022-08-11T19:58:36.912Z,39.32
2022-08-11T20:02:12.656Z,39.96
2022-08-11T20:05:34.249Z,40.16
2022-08-11T20:08:59.035Z,40.74
2022-08-11T20:12:20.705Z,40.51
2022-08-11T20:15:45.331Z,40.44
2022-08-11T20:19:06.604Z,40.98
2022-08-11T20:22:27.511Z,41.07
2022-08-11T20:25:48.195Z,41.17
2022-08-11T20:29:12.428Z,41.13
2022-08-11T20:32:34.680Z,41.48
2022-08-11T20:35:56.715Z,41.47
2022-08-11T20:39:18.800Z,41.70
2022-08-11T20:42:41.098Z,41.81
2022-08-11T20:46:02.702Z,42.17
2022-08-11T20:49:24.626Z,42.26
2022-08-11T20:52:48.172Z,42.59
2022-08-11T20:56:09.163Z,42.97
2022-08-11T20:59:43.681Z,43.45
2022-08-11T21:03:14.168Z,43.42
2022-08-11T21:06:55.870Z,44.03
2022-08-11T21:10:23.813Z,44.12
2022-08-11T21:13:51.430Z,44.94
2022-08-11T21:17:26.991Z,44.80
2022-08-11T21:20:48.783Z,45.08
2022-08-11T21:24:11.087Z,45.13
2022-08-11T21:27:35.166Z,44.95
2022-08-11T21:30:57.572Z,44.70
2022-08-11T21:34:18.653Z,44.36
2022-08-11T21:37:39.971Z,44.58
2022-08-11T21:41:02.846Z,44.38
2022-08-11T21:44:26.465Z,44.36
2022-08-11T21:47:49.301Z,43.49
2022-08-11T21:51:09.425Z,44.30
2022-08-11T21:54:30.389Z,44.15
2022-08-11T21:57:51.341Z,44.00
2022-08-11T22:01:13.164Z,43.72
2022-08-11T22:04:35.628Z,44.12
2022-08-11T22:07:57.274Z,44.10
2022-08-11T22:11:32.404Z,44.41
2022-08-11T22:14:53.377Z,44.26
2022-08-11T22:18:13.352Z,44.12
2022-08-11T22:22:01.540Z,44.43
2022-08-11T22:25:18.512Z,44.91
2022-08-11T22:28:39.104Z,44.87
2022-08-11T22:32:00.431Z,45.23
2022-08-11T22:35:21.802Z,45.77
2022-08-11T22:38:43.296Z,45.77
2022-08-11T22:42:03.340Z,46.03
2022-08-11T22:45:24.148Z,46.56
2022-08-11T22:48:50.630Z,47.37
2022-08-11T22:52:11.111Z,47.21
2022-08-11T22:55:32.453Z,47.67
2022-08-11T22:58:53.829Z,48.12
2022-08-11T23:02:14.726Z,48.18
2022-08-11T23:05:35.954Z,48.46
2022-08-11T23:08:56.793Z,48.68
2022-08-11T23:12:17.795Z,49.06
2022-08-11T23:15:39.172Z,49.17
2022-08-11T23:19:02.127Z,49.51
2022-08-11T23:22:23.349Z,49.59
2022-08-11T23:26:09.287Z,49.78
2022-08-11T23:29:30.427Z,50.23
2022-08-11T23:32:51.281Z,50.44
2022-08-11T23:36:11.587Z,50.73
2022-08-11T23:39:51.976Z,50.53
2022-08-11T23:43:12.669Z,50.22
2022-08-11T23:46:33.425Z,50.39
2022-08-11T23:49:57.439Z,50.56
2022-08-11T23:53:18.612Z,50.57
2022-08-11T23:56:38.818Z,50.80
